Time;durP1;ratioP1;P1;durP2;ratioP2;P2;SDS_P1;SDS_P2;PMS_P1;PMS_P2;Temp;Humidity;BMP_temperature;BMP_pressure;BME280_temperature;BME280_humidity;BME280_pressure;Samples;Min_cycle;Max_cycle;Signal;HPM_P1;HPM_P2
2022/04/13 00:02:01;;;;;;;11.80;7.15;;;10.50;71.10;;;;;;5075732;28;20099;-80
2022/04/13 00:04:27;;;;;;;11.63;7.03;;;10.50;71.30;;;;;;5089694;28;20032;-83
2022/04/13 00:06:53;;;;;;;12.50;7.57;;;10.50;71.80;;;;;;5080867;28;20032;-80
2022/04/13 00:09:18;;;;;;;12.27;6.78;;;10.50;71.70;;;;;;5079649;28;20196;-82
2022/04/13 00:11:44;;;;;;;10.35;6.35;;;10.40;71.40;;;;;;5074100;28;20024;-85
2022/04/13 00:14:10;;;;;;;13.07;6.80;;;10.40;71.60;;;;;;5067643;28;20044;-84
2022/04/13 00:16:35;;;;;;;9.48;6.28;;;10.40;71.30;;;;;;5065139;28;20028;-81
2022/04/13 00:19:01;;;;;;;11.65;6.25;;;10.40;71.40;;;;;;5076576;28;20376;-81
2022/04/13 00:21:26;;;;;;;9.63;6.05;;;10.40;71.30;;;;;;5052040;28;20153;-85
2022/04/13 00:23:52;;;;;;;10.93;6.18;;;10.40;71.30;;;;;;5072345;28;20036;-79
2022/04/13 00:26:17;;;;;;;11.07;6.25;;;10.40;71.40;;;;;;5068593;28;20484;-81
2022/04/13 00:28:43;;;;;;;10.90;5.80;;;10.40;71.40;;;;;;5055109;28;20020;-84
2022/04/13 00:31:08;;;;;;;9.80;6.22;;;10.40;71.30;;;;;;5067425;28;20099;-81
2022/04/13 00:33:34;;;;;;;11.13;6.47;;;10.40;71.50;;;;;;5079502;28;20408;-84
2022/04/13 00:36:00;;;;;;;16.05;6.25;;;10.30;71.40;;;;;;5076788;28;20020;-81
2022/04/13 00:38:25;;;;;;;11.25;6.32;;;10.30;71.40;;;;;;5069731;28;20028;-81
2022/04/13 00:40:51;;;;;;;11.93;6.68;;;10.30;71.40;;;;;;5050215;28;20028;-81
2022/04/13 00:43:16;;;;;;;13.07;7.05;;;10.30;71.40;;;;;;5057480;28;20035;-86
2022/04/13 00:45:46;;;;;;;10.23;6.30;;;10.20;71.70;;;;;;5074020;28;20035;-82
2022/04/13 00:48:23;;;;;;;10.38;6.25;;;10.20;71.70;;;;;;5071234;28;20036;-81
2022/04/13 00:50:48;;;;;;;12.82;6.50;;;10.20;72.00;;;;;;5064535;28;20028;-81
2022/04/13 00:53:15;;;;;;;12.63;6.75;;;10.10;72.20;;;;;;5055287;28;20099;-83
2022/04/13 00:55:43;;;;;;;13.15;7.65;;;10.10;72.90;;;;;;5067290;28;20052;-82
2022/04/13 00:58:13;;;;;;;9.18;6.10;;;10.00;72.60;;;;;;5074953;28;20021;-84
2022/04/13 01:00:48;;;;;;;11.05;6.20;;;10.00;72.80;;;;;;5069126;28;20051;-80
2022/04/13 01:03:20;;;;;;;10.98;6.63;;;10.00;72.90;;;;;;5071669;28;20025;-81
2022/04/13 01:05:47;;;;;;;;;;;10.00;72.90;;;;;;5065142;28;20029;-84
2022/04/13 01:08:13;;;;;;;11.73;6.28;;;9.90;72.90;;;;;;5079763;28;19966;-83
2022/04/13 01:10:42;;;;;;;11.48;6.90;;;9.90;73.20;;;;;;5068919;28;20056;-80
2022/04/13 01:13:08;;;;;;;9.93;6.35;;;9.90;73.50;;;;;;5070645;28;20476;-84
2022/04/13 01:15:34;;;;;;;13.88;6.93;;;9.80;73.60;;;;;;5066724;28;20870;-81
2022/04/13 01:18:00;;;;;;;13.05;6.32;;;9.80;74.00;;;;;;5077406;28;20058;-83
2022/04/13 01:20:26;;;;;;;11.20;6.78;;;9.80;74.10;;;;;;5075664;28;20024;-86
2022/04/13 01:22:52;;;;;;;12.98;6.57;;;9.80;74.20;;;;;;5077520;28;20019;-83
2022/04/13 01:25:17;;;;;;;9.45;5.68;;;9.80;74.50;;;;;;5077075;28;20119;-83
2022/04/13 01:27:42;;;;;;;9.48;6.20;;;9.70;74.70;;;;;;5060421;28;20342;-84
2022/04/13 01:30:10;;;;;;;12.43;6.38;;;9.60;74.90;;;;;;5079342;28;20067;-85
2022/04/13 01:32:36;;;;;;;11.88;6.20;;;9.60;74.90;;;;;;5077058;28;20082;-81
2022/04/13 01:35:01;;;;;;;10.57;6.90;;;9.60;74.70;;;;;;5074004;28;20029;-83
2022/04/13 01:37:27;;;;;;;10.10;6.50;;;9.60;75.00;;;;;;5075484;28;20024;-81
2022/04/13 01:39:52;;;;;;;18.13;7.05;;;9.50;75.30;;;;;;5079925;28;20422;-82
2022/04/13 01:42:18;;;;;;;10.40;6.72;;;9.50;75.30;;;;;;5072900;28;20111;-81
2022/04/13 01:44:44;;;;;;;14.15;6.70;;;9.40;75.70;;;;;;5075962;28;20027;-82
2022/04/13 01:47:09;;;;;;;9.88;6.00;;;9.40;75.80;;;;;;5053603;28;20029;-82
2022/04/13 01:49:38;;;;;;;11.52;6.85;;;9.40;76.10;;;;;;5072162;28;20035;-84
2022/04/13 01:52:04;;;;;;;10.77;6.47;;;9.30;76.10;;;;;;5073183;28;20082;-79
2022/04/13 01:54:30;;;;;;;10.95;6.93;;;9.30;76.50;;;;;;5061256;28;20036;-81
2022/04/13 01:56:57;;;;;;;11.43;7.32;;;9.30;77.00;;;;;;5077465;28;20016;-85
2022/04/13 01:59:23;;;;;;;13.02;7.05;;;9.30;77.80;;;;;;5073841;28;20036;-81
2022/04/13 02:01:50;;;;;;;12.05;8.10;;;9.30;78.00;;;;;;5061637;28;20024;-82
2022/04/13 02:04:25;;;;;;;10.05;6.30;;;9.30;78.00;;;;;;5080217;28;20035;-81
2022/04/13 02:06:51;;;;;;;10.73;7.03;;;9.30;77.90;;;;;;5063009;28;20106;-83
2022/04/13 02:09:18;;;;;;;10.80;7.07;;;9.20;78.10;;;;;;5077939;28;20291;-81
2022/04/13 02:11:44;;;;;;;13.88;6.50;;;9.20;78.10;;;;;;5076490;28;20499;-85
2022/04/13 02:14:10;;;;;;;9.82;6.55;;;9.20;78.30;;;;;;5071839;28;20024;-81
2022/04/13 02:16:36;;;;;;;11.55;7.18;;;9.20;78.30;;;;;;5068463;28;20030;-81
2022/04/13 02:19:03;;;;;;;12.02;7.15;;;9.10;78.70;;;;;;5070320;28;20028;-84
2022/04/13 02:21:30;;;;;;;12.32;7.45;;;9.10;78.80;;;;;;5074267;28;20544;-81
2022/04/13 02:23:55;;;;;;;12.48;7.40;;;9.10;79.00;;;;;;5074622;28;20017;-83
2022/04/13 02:26:22;;;;;;;9.60;6.38;;;9.10;79.20;;;;;;5075342;28;20071;-85
2022/04/13 02:28:48;;;;;;;10.38;6.82;;;9.10;79.00;;;;;;5079338;28;20030;-81
2022/04/13 02:31:14;;;;;;;11.85;6.82;;;9.10;78.90;;;;;;5079519;28;20032;-81
2022/04/13 02:33:39;;;;;;;10.88;6.82;;;9.00;79.60;;;;;;5085128;28;20089;-81
2022/04/13 02:36:08;;;;;;;12.10;7.35;;;9.00;79.70;;;;;;5075699;28;20113;-82
2022/04/13 02:38:34;;;;;;;10.30;6.53;;;9.00;79.70;;;;;;5060059;28;20464;-81
2022/04/13 02:40:59;;;;;;;12.75;6.53;;;9.00;80.00;;;;;;5070061;28;20028;-83
2022/04/13 02:43:27;;;;;;;12.10;7.45;;;9.00;80.20;;;;;;5071589;28;20017;-81
2022/04/13 02:45:53;;;;;;;10.40;6.30;;;9.00;80.20;;;;;;5069515;28;20029;-81
2022/04/13 02:48:19;;;;;;;11.90;7.07;;;8.90;80.40;;;;;;5068772;28;20028;-81
2022/04/13 02:50:44;;;;;;;12.93;7.35;;;9.00;80.50;;;;;;5073745;28;20035;-83
2022/04/13 02:53:10;;;;;;;9.43;5.75;;;8.90;80.40;;;;;;5066074;28;20017;-82
2022/04/13 02:55:35;;;;;;;11.30;6.32;;;8.90;80.60;;;;;;5068210;28;20483;-81
2022/04/13 02:58:01;;;;;;;11.48;5.85;;;8.90;80.50;;;;;;5082967;28;20028;-82
2022/04/13 03:00:26;;;;;;;11.35;6.25;;;9.00;80.40;;;;;;5071672;28;20020;-85
2022/04/13 03:02:53;;;;;;;10.13;6.75;;;9.00;80.50;;;;;;5078338;28;20500;-80
2022/04/13 03:05:18;;;;;;;10.52;6.80;;;9.00;80.40;;;;;;5077365;28;20078;-81
2022/04/13 03:07:44;;;;;;;12.40;7.28;;;9.00;80.60;;;;;;5074131;28;20023;-80
2022/04/13 03:10:09;;;;;;;10.35;7.00;;;9.00;80.20;;;;;;5072254;28;20028;-80
2022/04/13 03:12:36;;;;;;;9.25;6.00;;;9.00;80.10;;;;;;5074303;28;20081;-81
2022/04/13 03:15:05;;;;;;;10.10;6.32;;;9.00;79.70;;;;;;5071065;28;20032;-80
2022/04/13 03:17:31;;;;;;;11.02;6.40;;;9.00;79.60;;;;;;5059588;28;20032;-81
2022/04/13 03:19:56;;;;;;;13.02;6.82;;;9.00;79.60;;;;;;5072297;28;20350;-79
2022/04/13 03:22:23;;;;;;;14.98;6.68;;;9.00;79.50;;;;;;5073275;28;20031;-79
2022/04/13 03:24:48;;;;;;;10.05;6.82;;;9.10;79.90;;;;;;5071506;28;20107;-79
2022/04/13 03:27:14;;;;;;;14.00;6.22;;;9.00;80.00;;;;;;5080491;28;20158;-80
2022/04/13 03:29:39;;;;;;;15.05;7.07;;;9.00;80.10;;;;;;5079718;28;20039;-82
2022/04/13 03:32:05;;;;;;;9.15;5.70;;;9.00;80.40;;;;;;5057713;28;20028;-79
2022/04/13 03:34:31;;;;;;;10.82;6.97;;;9.00;80.10;;;;;;5059569;28;20039;-79
2022/04/13 03:36:57;;;;;;;12.52;6.68;;;9.00;80.00;;;;;;5066483;28;20032;-78
2022/04/13 03:39:23;;;;;;;11.30;6.93;;;9.00;80.20;;;;;;5072588;28;20099;-79
2022/04/13 03:41:49;;;;;;;10.32;6.32;;;8.90;80.20;;;;;;5075024;28;20051;-79
2022/04/13 03:44:14;;;;;;;10.65;6.30;;;9.00;80.70;;;;;;5071163;28;20108;-78
2022/04/13 03:46:40;;;;;;;11.52;6.25;;;8.90;80.90;;;;;;5074885;28;20031;-82
2022/04/13 03:49:07;;;;;;;10.07;6.10;;;8.90;80.60;;;;;;5045719;28;20028;-79
2022/04/13 03:51:33;;;;;;;10.95;6.35;;;9.00;80.20;;;;;;5076845;28;20377;-78
2022/04/13 03:53:58;;;;;;;10.52;6.22;;;9.00;80.00;;;;;;5071062;28;20035;-79
2022/04/13 03:56:24;;;;;;;9.52;6.03;;;9.00;79.90;;;;;;5066930;28;20033;-84
2022/04/13 03:58:49;;;;;;;11.02;6.18;;;9.00;79.90;;;;;;5066774;28;20453;-80
2022/04/13 04:01:15;;;;;;;14.40;6.90;;;9.00;79.80;;;;;;5065870;28;20063;-79
2022/04/13 04:03:40;;;;;;;15.90;6.15;;;9.00;80.10;;;;;;5067945;28;20065;-83
2022/04/13 04:06:06;;;;;;;15.13;6.15;;;9.00;80.20;;;;;;5072961;28;20039;-79
2022/04/13 04:08:35;;;;;;;10.43;6.43;;;9.00;80.30;;;;;;5063924;28;20036;-79
2022/04/13 04:11:01;;;;;;;12.63;6.82;;;8.90;80.50;;;;;;5064611;28;20028;-80
2022/04/13 04:13:26;;;;;;;12.82;6.35;;;8.90;80.40;;;;;;5071719;28;20058;-79
2022/04/13 04:15:52;;;;;;;11.65;6.22;;;8.90;80.50;;;;;;5075149;28;20028;-79
2022/04/13 04:18:18;;;;;;;10.23;6.50;;;8.90;80.80;;;;;;5049323;28;20060;-82
2022/04/13 04:20:44;;;;;;;12.40;6.70;;;8.90;80.90;;;;;;5065547;28;20032;-79
2022/04/13 04:23:09;;;;;;;11.40;6.57;;;8.90;81.10;;;;;;5059895;28;20120;-84
2022/04/13 04:25:36;;;;;;;9.93;6.07;;;8.90;81.10;;;;;;5064447;28;20509;-83
2022/04/13 04:28:03;;;;;;;12.77;5.93;;;8.90;81.20;;;;;;5063699;28;20067;-84
2022/04/13 04:30:31;;;;;;;9.35;5.68;;;8.80;81.20;;;;;;5065322;28;20024;-80
2022/04/13 04:32:57;;;;;;;12.05;6.82;;;8.80;81.20;;;;;;5064736;28;20035;-84
2022/04/13 04:35:22;;;;;;;9.10;5.85;;;8.90;81.60;;;;;;5062944;28;20036;-82
2022/04/13 04:37:48;;;;;;;10.57;6.57;;;8.90;81.60;;;;;;5045743;28;20028;-80
2022/04/13 04:40:14;;;;;;;9.30;5.78;;;8.90;81.80;;;;;;5066182;28;20024;-80
2022/04/13 04:42:47;;;;;;;10.30;5.72;;;8.90;81.70;;;;;;5058945;28;20022;-80
2022/04/13 04:45:19;;;;;;;11.65;6.65;;;8.90;81.40;;;;;;5050592;28;20119;-84
2022/04/13 04:47:49;;;;;;;6.10;4.33;;;8.90;81.10;;;;;;5053931;28;20064;-79
2022/04/13 04:50:18;;;;;;;11.90;6.53;;;8.90;81.10;;;;;;5075848;28;20043;-81
2022/04/13 04:52:44;;;;;;;14.18;7.25;;;9.00;81.30;;;;;;5052743;28;20032;-80
2022/04/13 04:55:11;;;;;;;15.18;6.30;;;9.00;81.30;;;;;;5050055;28;20048;-80
2022/04/13 04:57:37;;;;;;;12.52;6.05;;;9.00;81.30;;;;;;5074972;28;20020;-81
2022/04/13 05:00:05;;;;;;;13.63;6.57;;;9.10;81.20;;;;;;5072828;28;20165;-79
2022/04/13 05:02:31;;;;;;;12.57;5.75;;;9.10;81.20;;;;;;5070811;28;20024;-79
2022/04/13 05:04:57;;;;;;;14.00;6.40;;;9.20;80.90;;;;;;5065568;28;20661;-84
2022/04/13 05:07:22;;;;;;;13.75;5.50;;;9.30;80.50;;;;;;5058170;28;20043;-79
2022/04/13 05:09:48;;;;;;;9.82;5.78;;;9.30;80.10;;;;;;5075249;28;20064;-79
2022/04/13 05:12:13;;;;;;;13.60;6.10;;;9.40;80.10;;;;;;5071603;28;20028;-81
2022/04/13 05:14:39;;;;;;;11.27;5.32;;;9.50;80.00;;;;;;5068355;28;20028;-82
2022/04/13 05:17:04;;;;;;;9.63;5.85;;;9.60;79.90;;;;;;5067055;28;20051;-82
2022/04/13 05:19:30;;;;;;;19.90;5.57;;;9.60;79.90;;;;;;5071263;28;20035;-79
2022/04/13 05:21:55;;;;;;;9.60;5.72;;;9.60;79.70;;;;;;5069774;28;20024;-79
2022/04/13 05:24:21;;;;;;;13.88;5.85;;;9.70;79.70;;;;;;5069753;28;20473;-80
2022/04/13 05:26:46;;;;;;;11.35;5.88;;;9.80;79.60;;;;;;5051815;28;20036;-79
2022/04/13 05:29:12;;;;;;;14.20;5.20;;;9.90;79.20;;;;;;5069555;28;20095;-79
2022/04/13 05:31:37;;;;;;;12.27;5.18;;;10.00;79.00;;;;;;5069242;28;20028;-79
2022/04/13 05:34:03;;;;;;;11.82;5.80;;;10.10;78.80;;;;;;5069523;28;20020;-78
2022/04/13 05:36:28;;;;;;;11.65;5.07;;;10.20;78.40;;;;;;5062784;28;20025;-81
2022/04/13 05:38:53;;;;;;;11.07;5.70;;;10.30;78.30;;;;;;5051377;28;20029;-80
2022/04/13 05:41:19;;;;;;;9.70;6.03;;;10.30;78.00;;;;;;5052190;28;20131;-79
2022/04/13 05:43:44;;;;;;;16.02;5.90;;;10.40;77.60;;;;;;5063545;28;20029;-81
2022/04/13 05:46:10;;;;;;;12.63;5.22;;;10.50;77.50;;;;;;5069142;28;20396;-78
2022/04/13 05:48:35;;;;;;;8.75;5.70;;;10.50;77.30;;;;;;5070275;28;20038;-82
2022/04/13 05:51:01;;;;;;;8.15;4.95;;;10.60;77.50;;;;;;5070112;28;20024;-77
2022/04/13 05:53:26;;;;;;;10.50;5.43;;;10.70;77.80;;;;;;5071394;28;20109;-80
2022/04/13 05:56:00;;;;;;;10.45;6.15;;;10.70;77.00;;;;;;5070261;28;20429;-79
2022/04/13 05:58:27;;;;;;;11.65;5.30;;;10.80;76.70;;;;;;5071574;28;20030;-80
2022/04/13 06:01:25;;;;;;;9.82;5.05;;;10.90;76.90;;;;;;5071250;28;20029;-80
2022/04/13 06:04:03;;;;;;;9.00;5.35;;;11.00;76.70;;;;;;5035694;28;20545;-78
2022/04/13 06:06:32;;;;;;;10.77;5.15;;;11.10;76.40;;;;;;5052066;28;20114;-79
2022/04/13 06:08:58;;;;;;;10.10;5.57;;;11.20;76.30;;;;;;5070894;28;20039;-79
2022/04/13 06:11:24;;;;;;;9.95;5.57;;;11.20;75.40;;;;;;5071777;28;20368;-80
2022/04/13 06:13:55;;;;;;;9.35;5.50;;;11.40;75.30;;;;;;5071022;28;20500;-80
2022/04/13 06:16:22;;;;;;;13.82;5.55;;;11.50;75.40;;;;;;5052684;28;20036;-80
2022/04/13 06:18:48;;;;;;;7.45;5.40;;;11.60;75.60;;;;;;5070629;28;20078;-82
2022/04/13 06:21:32;;;;;;;12.93;5.20;;;11.70;74.90;;;;;;5071505;28;20461;-79
2022/04/13 06:24:01;;;;;;;7.40;5.50;;;11.80;74.70;;;;;;5072100;28;20043;-80
2022/04/13 06:26:27;;;;;;;10.48;5.70;;;11.90;74.30;;;;;;5051684;28;20044;-79
2022/04/13 06:28:56;;;;;;;7.80;4.45;;;12.10;73.80;;;;;;5069301;28;20069;-80
2022/04/13 06:31:25;;;;;;;16.83;5.43;;;12.10;73.30;;;;;;5075413;28;20112;-80
2022/04/13 06:33:57;;;;;;;11.27;5.97;;;12.20;73.60;;;;;;5054689;28;20024;-82
2022/04/13 06:36:28;;;;;;;8.68;4.95;;;12.30;73.20;;;;;;5077899;28;20128;-80
2022/04/13 06:39:13;;;;;;;10.80;5.72;;;12.40;73.50;;;;;;5051624;28;20107;-82
2022/04/13 06:41:39;;;;;;;8.60;4.97;;;12.40;73.60;;;;;;5090485;28;20318;-82
2022/04/13 06:44:24;;;;;;;10.63;5.60;;;12.50;73.80;;;;;;5074130;28;20028;-81
2022/04/13 06:46:54;;;;;;;9.43;5.32;;;12.60;73.40;;;;;;5050255;28;20033;-80
2022/04/13 06:49:22;;;;;;;8.95;5.45;;;12.70;73.50;;;;;;5069876;28;20122;-79
2022/04/13 06:51:48;;;;;;;7.65;4.35;;;12.90;73.40;;;;;;5068896;28;20087;-80
2022/04/13 06:54:14;;;;;;;9.43;4.90;;;12.90;73.20;;;;;;5052003;28;20106;-81
2022/04/13 06:56:40;;;;;;;9.80;5.28;;;13.10;73.20;;;;;;5050277;28;20065;-80
2022/04/13 06:59:10;;;;;;;8.35;4.90;;;13.20;73.10;;;;;;5050441;28;20024;-82
2022/04/13 07:01:45;;;;;;;9.48;5.35;;;13.30;71.90;;;;;;5051235;28;20032;-80
2022/04/13 07:04:11;;;;;;;8.18;4.85;;;13.50;71.40;;;;;;5067178;28;20138;-81
2022/04/13 07:06:42;;;;;;;10.55;5.47;;;13.60;71.50;;;;;;5068330;28;20016;-81
2022/04/13 07:09:14;;;;;;;7.35;4.32;;;13.80;71.80;;;;;;5069535;28;20397;-81
2022/04/13 07:11:46;;;;;;;8.18;4.97;;;13.90;71.00;;;;;;5050076;28;20375;-80
2022/04/13 07:14:12;;;;;;;7.38;4.95;;;14.10;70.70;;;;;;5068410;28;20064;-80
2022/04/13 07:16:37;;;;;;;6.72;4.70;;;14.20;70.10;;;;;;5049279;28;20118;-79
2022/04/13 07:19:02;;;;;;;7.43;4.25;;;14.40;70.00;;;;;;5067650;28;20036;-80
2022/04/13 07:21:28;;;;;;;6.95;4.60;;;14.60;68.80;;;;;;5068085;28;20110;-78
2022/04/13 07:23:56;;;;;;;11.05;4.65;;;14.70;68.40;;;;;;5069917;28;20024;-80
2022/04/13 07:26:39;;;;;;;8.52;4.90;;;14.80;67.90;;;;;;5060177;28;20042;-79
2022/04/13 07:29:05;;;;;;;6.85;4.30;;;15.00;67.20;;;;;;5050517;28;20032;-81
2022/04/13 07:31:31;;;;;;;8.23;3.97;;;15.10;66.70;;;;;;5067325;28;20028;-80
2022/04/13 07:33:57;;;;;;;6.53;4.22;;;15.20;66.40;;;;;;5068431;28;20078;-80
2022/04/13 07:36:23;;;;;;;8.23;3.45;;;15.30;64.80;;;;;;5066940;28;20410;-80
2022/04/13 07:38:50;;;;;;;8.73;4.05;;;15.40;65.20;;;;;;5068805;28;20028;-82
2022/04/13 07:41:15;;;;;;;8.30;4.07;;;15.60;63.10;;;;;;5067509;28;20126;-81
2022/04/13 07:43:41;;;;;;;7.60;4.13;;;15.70;62.80;;;;;;5069472;28;20461;-78
2022/04/13 07:46:06;;;;;;;6.22;3.50;;;15.80;61.80;;;;;;5067484;28;20040;-84
2022/04/13 07:48:32;;;;;;;9.50;3.38;;;15.90;61.70;;;;;;5068219;28;20067;-80
2022/04/13 07:50:57;;;;;;;8.80;3.70;;;15.90;62.10;;;;;;5049422;28;20016;-79
2022/04/13 07:53:23;;;;;;;5.60;3.20;;;16.00;60.90;;;;;;5068083;28;20021;-80
2022/04/13 07:55:50;;;;;;;6.47;3.67;;;16.20;60.50;;;;;;5066088;28;20032;-83
2022/04/13 07:58:16;;;;;;;10.25;3.80;;;16.30;59.50;;;;;;5067902;28;20102;-81
2022/04/13 08:00:42;;;;;;;4.75;2.95;;;16.40;59.30;;;;;;5066252;28;20024;-79
2022/04/13 08:03:08;;;;;;;6.25;2.75;;;16.50;59.60;;;;;;5041364;28;20040;-82
2022/04/13 08:05:34;;;;;;;6.07;3.70;;;16.60;59.60;;;;;;5066634;28;20029;-79
2022/04/13 08:08:00;;;;;;;9.50;3.47;;;16.70;59.30;;;;;;5048381;28;20703;-81
2022/04/13 08:10:26;;;;;;;7.05;3.50;;;16.90;58.10;;;;;;5066654;28;20040;-82
2022/04/13 08:12:51;;;;;;;5.15;3.15;;;17.00;58.70;;;;;;5047180;28;20059;-80
2022/04/13 08:15:17;;;;;;;19.02;4.07;;;17.10;59.50;;;;;;5065338;28;20377;-80
2022/04/13 08:17:43;;;;;;;7.35;3.40;;;17.20;58.90;;;;;;5066195;28;20024;-82
2022/04/13 08:20:11;;;;;;;6.25;3.88;;;17.30;59.90;;;;;;5065512;28;20082;-80
2022/04/13 08:22:37;;;;;;;8.30;3.67;;;17.40;58.70;;;;;;5058664;28;20146;-82
2022/04/13 08:25:03;;;;;;;7.38;3.13;;;17.60;58.40;;;;;;5078430;28;20107;-81
2022/04/13 08:27:28;;;;;;;7.40;3.35;;;17.70;58.60;;;;;;5049957;28;20504;-81
2022/04/13 08:29:54;;;;;;;5.95;3.33;;;17.80;57.90;;;;;;5066889;28;20059;-80
2022/04/13 08:32:20;;;;;;;5.93;3.00;;;18.00;57.90;;;;;;5071583;28;20119;-79
2022/04/13 08:34:49;;;;;;;5.28;2.95;;;18.20;58.10;;;;;;5072939;28;20461;-79
2022/04/13 08:37:15;;;;;;;6.35;3.20;;;18.40;56.50;;;;;;5072074;28;20085;-80
2022/04/13 08:39:40;;;;;;;4.63;2.53;;;18.60;55.50;;;;;;5053492;28;20058;-80
2022/04/13 08:42:12;;;;;;;6.40;2.60;;;18.70;56.40;;;;;;5071110;28;20089;-84
2022/04/13 08:44:56;;;;;;;9.07;3.03;;;18.70;57.20;;;;;;5072799;28;20058;-84
2022/04/13 08:47:24;;;;;;;7.30;2.85;;;18.90;56.40;;;;;;5053379;28;20876;-77
2022/04/13 08:49:52;;;;;;;3.80;2.38;;;19.10;56.10;;;;;;5066491;28;20029;-80
2022/04/13 08:52:30;;;;;;;4.28;3.00;;;19.20;55.50;;;;;;5072755;28;20028;-80
2022/04/13 08:55:05;;;;;;;5.80;2.65;;;19.30;53.30;;;;;;5072645;28;20028;-80
2022/04/13 08:57:40;;;;;;;4.55;2.38;;;19.40;54.00;;;;;;5071626;28;20119;-78
2022/04/13 09:00:11;;;;;;;3.45;2.08;;;19.50;54.70;;;;;;5073114;28;20033;-78
2022/04/13 09:03:09;;;;;;;3.92;2.08;;;19.50;54.20;;;;;;5072062;28;20016;-79
2022/04/13 09:05:36;;;;;;;4.28;2.05;;;19.60;54.10;;;;;;5071952;28;20081;-82
2022/04/13 09:08:21;;;;;;;5.47;2.58;;;19.70;53.10;;;;;;5072246;28;20047;-81
2022/04/13 09:10:48;;;;;;;4.43;2.40;;;19.80;54.80;;;;;;5072283;28;20589;-81
2022/04/13 09:13:14;;;;;;;9.05;2.05;;;19.90;53.30;;;;;;5073181;28;20107;-80
2022/04/13 09:15:41;;;;;;;4.38;2.30;;;19.90;52.90;;;;;;5071205;28;20492;-79
2022/04/13 09:18:08;;;;;;;5.82;2.20;;;20.10;52.70;;;;;;5054205;28;20781;-81
2022/04/13 09:20:34;;;;;;;7.60;2.15;;;20.20;53.30;;;;;;5072022;28;20032;-79
2022/04/13 09:23:00;;;;;;;4.65;2.20;;;20.20;52.00;;;;;;5076179;28;20054;-80
2022/04/13 09:25:30;;;;;;;6.05;2.67;;;20.30;52.80;;;;;;5072126;28;20475;-79
2022/04/13 09:27:57;;;;;;;3.75;2.08;;;20.40;52.50;;;;;;5072623;28;20028;-79
2022/04/13 09:30:23;;;;;;;5.57;2.20;;;20.50;53.50;;;;;;5074168;28;20056;-79
2022/04/13 09:32:50;;;;;;;4.75;1.88;;;20.50;51.90;;;;;;5073559;28;20669;-81
2022/04/13 09:35:16;;;;;;;5.47;2.35;;;20.70;51.90;;;;;;5073413;28;20035;-82
2022/04/13 09:37:43;;;;;;;3.63;2.13;;;20.80;50.10;;;;;;5072365;28;20048;-80
2022/04/13 09:40:09;;;;;;;5.93;2.40;;;21.00;50.80;;;;;;5072802;28;20052;-78
2022/04/13 09:42:36;;;;;;;3.72;1.90;;;21.10;49.90;;;;;;5070218;28;20158;-78
2022/04/13 09:45:03;;;;;;;2.40;1.98;;;21.10;51.10;;;;;;5069825;28;20020;-81
2022/04/13 09:47:31;;;;;;;4.07;1.90;;;21.20;50.80;;;;;;5068526;28;20052;-84
2022/04/13 09:49:56;;;;;;;3.47;1.88;;;21.30;51.70;;;;;;5069668;28;20017;-79
2022/04/13 09:52:37;;;;;;;3.35;2.25;;;21.40;52.70;;;;;;5070199;28;20525;-79
2022/04/13 09:55:07;;;;;;;5.25;2.20;;;21.50;50.90;;;;;;5054430;28;20531;-80
2022/04/13 09:57:32;;;;;;;2.80;1.75;;;21.60;50.80;;;;;;5047009;28;20028;-79
2022/04/13 10:00:04;;;;;;;7.40;1.90;;;21.70;49.60;;;;;;5069101;28;20040;-80
2022/04/13 10:02:43;;;;;;;4.22;2.30;;;21.80;50.90;;;;;;5069068;28;20042;-81
2022/04/13 10:05:30;;;;;;;3.85;2.33;;;21.90;51.80;;;;;;5069353;28;20150;-79
2022/04/13 10:08:23;;;;;;;5.00;1.70;;;22.00;50.20;;;;;;5068852;28;20025;-79
2022/04/13 10:10:51;;;;;;;7.82;2.17;;;22.20;51.90;;;;;;5066692;28;20448;-79
2022/04/13 10:13:31;;;;;;;6.85;2.40;;;22.40;50.40;;;;;;5068636;28;20408;-79
2022/04/13 10:15:58;;;;;;;4.10;1.88;;;22.50;49.80;;;;;;5075413;28;20024;-80
2022/04/13 10:18:24;;;;;;;8.18;2.20;;;22.60;50.60;;;;;;5069442;28;20023;-81
2022/04/13 10:20:49;;;;;;;6.20;2.17;;;22.60;49.40;;;;;;5068581;28;20028;-80
2022/04/13 10:23:16;;;;;;;4.30;1.60;;;22.60;49.90;;;;;;5068190;28;20135;-79
2022/04/13 10:25:43;;;;;;;4.20;1.67;;;22.70;48.80;;;;;;5050043;28;20033;-81
2022/04/13 10:28:12;;;;;;;3.88;1.50;;;22.70;48.50;;;;;;5068219;28;20181;-83
2022/04/13 10:30:41;;;;;;;3.75;1.92;;;22.70;48.10;;;;;;5068802;28;20104;-81
2022/04/13 10:33:11;;;;;;;3.42;2.05;;;22.70;49.40;;;;;;5068559;28;20093;-85
2022/04/13 10:35:42;;;;;;;5.70;1.83;;;22.80;48.60;;;;;;5049658;28;20036;-80
2022/04/13 10:38:08;;;;;;;5.00;2.70;;;22.90;48.80;;;;;;5068340;28;20024;-79
2022/04/13 10:40:36;;;;;;;4.18;1.95;;;23.00;49.30;;;;;;5068362;28;20024;-80
2022/04/13 10:43:04;;;;;;;5.38;2.22;;;23.10;49.50;;;;;;5050551;28;20059;-79
2022/04/13 10:45:30;;;;;;;4.55;2.40;;;23.20;48.90;;;;;;5067913;28;20394;-79
2022/04/13 10:48:00;;;;;;;6.70;2.55;;;23.30;49.20;;;;;;5077983;28;20039;-83
2022/04/13 10:50:31;;;;;;;6.40;2.45;;;23.40;49.20;;;;;;5088909;28;20076;-80
2022/04/13 10:53:13;;;;;;;7.03;2.30;;;23.50;49.00;;;;;;5088210;28;20448;-80
2022/04/13 10:55:41;;;;;;;5.20;2.28;;;23.50;48.60;;;;;;5070113;28;20123;-85
2022/04/13 10:58:18;;;;;;;3.03;1.70;;;23.50;49.40;;;;;;5088426;28;20028;-79
2022/04/13 11:00:45;;;;;;;7.35;2.15;;;23.50;49.60;;;;;;5088797;28;20024;-84
2022/04/13 11:03:11;;;;;;;4.53;2.45;;;23.40;48.70;;;;;;5073191;28;20021;-81
2022/04/13 11:05:40;;;;;;;3.83;2.35;;;23.40;48.70;;;;;;5048008;28;20643;-81
2022/04/13 11:08:41;;;;;;;4.10;2.30;;;23.40;49.90;;;;;;5071458;28;20037;-85
2022/04/13 11:11:06;;;;;;;8.05;2.63;;;23.50;49.00;;;;;;5063008;28;20045;-80
2022/04/13 11:13:33;;;;;;;10.18;2.08;;;23.70;49.50;;;;;;5068504;28;20051;-81
2022/04/13 11:16:14;;;;;;;4.10;2.00;;;23.80;49.30;;;;;;5049053;28;20042;-85
2022/04/13 11:18:40;;;;;;;3.73;2.00;;;23.80;49.40;;;;;;5049677;28;20124;-85
2022/04/13 11:21:07;;;;;;;4.18;2.25;;;23.90;48.30;;;;;;5067863;28;20350;-83
2022/04/13 11:23:49;;;;;;;3.33;1.65;;;24.00;47.90;;;;;;5050397;28;20476;-80
2022/04/13 11:26:24;;;;;;;5.53;2.10;;;24.10;48.30;;;;;;5067223;28;20024;-81
2022/04/13 11:29:09;;;;;;;3.17;1.90;;;24.30;50.00;;;;;;5049305;28;20654;-80
2022/04/13 11:32:00;;;;;;;4.43;2.38;;;24.40;47.80;;;;;;5067262;28;20027;-81
2022/04/13 11:34:51;;;;;;;4.55;2.17;;;24.50;46.80;;;;;;5053360;28;20123;-83
2022/04/13 11:37:23;;;;;;;7.13;2.53;;;24.60;47.00;;;;;;5071856;28;20039;-81
2022/04/13 11:39:53;;;;;;;;;;;24.60;48.90;;;;;;5068312;28;20442;-82
2022/04/13 11:42:28;;;;;;;4.22;2.83;;;24.60;48.60;;;;;;5048215;28;19966;-81
2022/04/13 11:45:07;;;;;;;4.32;2.80;;;24.60;49.40;;;;;;5087991;28;20020;-82
2022/04/13 11:47:51;;;;;;;5.68;2.67;;;24.70;49.60;;;;;;5086720;28;20617;-85
2022/04/13 11:50:19;;;;;;;5.75;2.75;;;24.60;49.00;;;;;;5052277;28;20020;-82
2022/04/13 11:52:51;;;;;;;3.88;2.13;;;24.70;48.70;;;;;;5063022;28;20031;-86
2022/04/13 11:55:39;;;;;;;3.65;2.55;;;24.70;49.10;;;;;;5067889;28;20107;-85
2022/04/13 11:58:04;;;;;;;5.00;3.30;;;24.90;48.60;;;;;;5067403;28;20027;-86
2022/04/13 12:00:45;;;;;;;3.95;2.45;;;25.10;48.20;;;;;;5087946;28;20115;-82
2022/04/13 12:03:23;;;;;;;4.20;2.78;;;25.20;49.50;;;;;;5062541;28;20013;-85
2022/04/13 12:05:51;;;;;;;4.82;2.65;;;25.40;49.80;;;;;;5066292;28;20036;-84
2022/04/13 12:08:23;;;;;;;7.63;2.42;;;25.50;48.20;;;;;;5068208;28;20113;-83
2022/04/13 12:10:53;;;;;;;4.20;2.97;;;25.50;47.30;;;;;;5068309;28;20059;-86
2022/04/13 12:13:19;;;;;;;9.00;2.83;;;25.50;48.40;;;;;;5068463;28;20028;-82
2022/04/13 12:15:47;;;;;;;4.90;3.10;;;25.60;47.60;;;;;;5078824;28;20028;-82
2022/04/13 12:18:13;;;;;;;6.68;3.30;;;25.50;50.00;;;;;;5070275;28;20073;-82
2022/04/13 12:20:40;;;;;;;11.75;3.83;;;25.50;48.00;;;;;;5071438;28;20025;-84
2022/04/13 12:23:15;;;;;;;5.88;3.30;;;25.60;48.40;;;;;;5067054;28;20039;-84
2022/04/13 12:25:45;;;;;;;6.13;3.67;;;25.70;48.80;;;;;;5067558;28;20028;-82
2022/04/13 12:28:11;;;;;;;4.85;3.08;;;25.80;49.70;;;;;;5068370;28;20755;-83
2022/04/13 12:30:37;;;;;;;5.32;3.25;;;25.90;50.80;;;;;;5068657;28;20077;-82
2022/04/13 12:33:21;;;;;;;5.15;3.05;;;26.10;47.80;;;;;;5067851;28;20666;-82
2022/04/13 12:35:49;;;;;;;6.00;2.88;;;26.20;48.90;;;;;;5068392;28;20111;-81
2022/04/13 12:38:26;;;;;;;7.95;2.67;;;26.30;46.20;;;;;;5068094;28;20078;-81
2022/04/13 12:41:15;;;;;;;6.05;3.63;;;26.40;49.10;;;;;;5050208;28;20020;-81
2022/04/13 12:43:49;;;;;;;9.27;3.95;;;26.50;47.30;;;;;;5069161;28;20461;-85
2022/04/13 12:46:20;;;;;;;6.25;3.53;;;26.60;47.40;;;;;;5048969;28;20107;-82
2022/04/13 12:48:48;;;;;;;5.50;2.95;;;26.60;48.00;;;;;;5050211;28;20151;-82
2022/04/13 12:51:14;;;;;;;5.78;3.30;;;26.60;45.60;;;;;;5073516;28;20032;-83
2022/04/13 12:53:49;;;;;;;5.18;3.50;;;26.70;47.40;;;;;;5092363;28;20024;-83